createdAt,value
2017-08-29T00:00:26.756Z,-2.1
2017-08-29T00:01:25.433Z,-2.1
2017-08-29T00:02:24.491Z,-2.1
2017-08-29T00:03:23.913Z,-2.1
2017-08-29T00:04:23.356Z,-2.1
2017-08-29T00:05:22.667Z,-2.2
2017-08-29T00:06:21.474Z,-2.2
2017-08-29T00:07:20.671Z,-2.2
2017-08-29T00:08:19.988Z,-2.2
2017-08-29T00:09:19.555Z,-2.1
2017-08-29T00:10:18.487Z,-2.1
2017-08-29T00:11:18.179Z,-2.1
2017-08-29T00:12:16.858Z,-2.2
2017-08-29T00:13:16.180Z,-2.2
2017-08-29T00:14:15.519Z,-2.2
2017-08-29T00:15:14.980Z,-2.1
2017-08-29T00:16:13.929Z,-2.1
2017-08-29T00:17:13.375Z,-2.1
2017-08-29T00:18:12.698Z,-2.1
2017-08-29T00:19:11.622Z,-2.1
2017-08-29T00:20:10.931Z,-2.1
2017-08-29T00:22:09.260Z,-2.3
2017-08-29T00:23:08.451Z,-2.2
2017-08-29T00:24:07.907Z,-2.2
2017-08-29T00:25:07.345Z,-2.1
2017-08-29T00:26:06.279Z,-2.1
2017-08-29T00:27:05.726Z,-2.1
2017-08-29T00:28:04.544Z,-2.1
2017-08-29T00:29:04.120Z,-2.1
2017-08-29T00:30:02.943Z,-2.2
2017-08-29T00:31:02.379Z,-2.1
2017-08-29T00:32:01.821Z,-2.1
2017-08-29T00:33:00.647Z,-2
2017-08-29T00:34:00.094Z,-2
2017-08-29T00:34:59.550Z,-2.1
2017-08-29T00:35:58.367Z,-2.1
2017-08-29T00:36:57.549Z,-2
2017-08-29T00:37:57.110Z,-2
2017-08-29T00:40:54.968Z,-1.9
2017-08-29T00:41:54.286Z,-1.9
2017-08-29T00:42:53.357Z,-1.9
2017-08-29T00:43:52.793Z,-1.9
2017-08-29T00:44:51.740Z,-1.9
2017-08-29T00:46:50.065Z,-1.9
2017-08-29T00:47:49.251Z,-1.9
2017-08-29T00:48:48.562Z,-1.8
2017-08-29T00:49:47.895Z,-1.8
2017-08-29T00:50:47.336Z,-1.8
2017-08-29T00:51:46.276Z,-1.8
2017-08-29T00:52:45.589Z,-1.8
2017-08-29T00:53:45.025Z,-1.8
2017-08-29T00:54:43.962Z,-1.8
2017-08-29T00:55:43.550Z,-1.8
2017-08-29T00:56:42.617Z,-1.9
2017-08-29T00:57:41.317Z,-1.9
2017-08-29T00:58:40.640Z,-1.9
2017-08-29T00:59:40.194Z,-1.9
2017-08-29T01:00:39.522Z,-1.9
2017-08-29T01:01:38.216Z,-1.8
2017-08-29T01:02:37.911Z,-1.8
2017-08-29T01:03:37.480Z,-1.9
2017-08-29T01:04:36.037Z,-1.9
2017-08-29T01:05:35.624Z,-1.8
2017-08-29T01:06:34.940Z,-1.8
2017-08-29T01:07:33.762Z,-1.9
2017-08-29T01:08:33.337Z,-1.9
2017-08-29T01:09:32.279Z,-1.9
2017-08-29T01:10:31.714Z,-1.9
2017-08-29T01:11:30.769Z,-1.9
2017-08-29T01:12:30.206Z,-1.8
2017-08-29T01:13:29.257Z,-1.8
2017-08-29T01:15:27.738Z,-1.8
2017-08-29T01:16:27.060Z,-1.8
2017-08-29T01:17:26.508Z,-1.8
2017-08-29T01:18:25.583Z,-1.8
2017-08-29T01:19:24.770Z,-1.8
2017-08-29T01:20:23.456Z,-1.8
2017-08-29T01:21:23.273Z,-1.8
2017-08-29T01:22:22.586Z,-1.8
2017-08-29T01:23:21.403Z,-1.8
2017-08-29T01:24:20.963Z,-1.8
2017-08-29T01:25:19.660Z,-1.8
2017-08-29T01:26:18.983Z,-1.8
2017-08-29T01:27:18.298Z,-1.8
2017-08-29T01:28:17.605Z,-1.8
2017-08-29T01:29:16.943Z,-1.8
2017-08-29T01:30:15.898Z,-1.8
2017-08-29T01:31:15.225Z,-1.8
2017-08-29T01:32:14.784Z,-2
2017-08-29T01:33:13.588Z,-2
2017-08-29T01:34:13.024Z,-1.9
2017-08-29T01:36:11.610Z,-2
2017-08-29T01:37:10.921Z,-1.9
2017-08-29T01:38:09.727Z,-1.9
2017-08-29T01:39:09.187Z,-1.9
2017-08-29T01:40:08.005Z,-1.9
2017-08-29T01:41:07.311Z,-2
2017-08-29T01:43:05.892Z,-1.9
2017-08-29T01:44:05.333Z,-1.9
2017-08-29T01:45:04.396Z,-1.9
2017-08-29T01:46:03.725Z,-1.9
2017-08-29T01:47:02.654Z,-1.9
2017-08-29T01:48:01.584Z,-2
2017-08-29T01:49:01.400Z,-2
2017-08-29T01:50:00.466Z,-2
2017-08-29T01:50:59.913Z,-2
2017-08-29T01:52:58.242Z,-1.9
2017-08-29T01:53:57.677Z,-2
2017-08-29T01:54:56.480Z,-2
2017-08-29T01:55:55.793Z,-2
2017-08-29T01:56:55.352Z,-1.9
2017-08-29T01:57:54.293Z,-2
2017-08-29T01:58:53.492Z,-1.9
2017-08-29T01:59:52.932Z,-1.9
2017-08-29T02:00:51.893Z,-1.8
2017-08-29T02:01:51.328Z,-1.9
2017-08-29T02:02:50.405Z,-1.8
2017-08-29T02:03:49.978Z,-1.8
2017-08-29T02:04:49.174Z,-1.9
2017-08-29T02:05:47.730Z,-1.8
2017-08-29T02:06:46.914Z,-2
2017-08-29T02:08:45.614Z,-2
2017-08-29T02:09:45.298Z,-1.8
2017-08-29T02:10:44.228Z,-1.8
2017-08-29T02:11:43.040Z,-1.8
2017-08-29T02:12:42.358Z,-1.7
2017-08-29T02:13:41.810Z,-1.8
2017-08-29T02:14:41.007Z,-1.8
2017-08-29T02:15:40.201Z,-1.8
2017-08-29T02:16:39.526Z,-1.8
2017-08-29T02:17:39.102Z,-1.8
2017-08-29T02:18:38.040Z,-1.8
2017-08-29T02:19:36.988Z,-1.8
2017-08-29T02:20:36.436Z,-1.7
2017-08-29T02:21:35.752Z,-1.8
2017-08-29T02:22:34.549Z,-1.8
2017-08-29T02:23:34.007Z,-1.8
2017-08-29T02:24:33.447Z,-1.8
2017-08-29T02:25:32.521Z,-1.8
2017-08-29T02:26:31.596Z,-1.8
2017-08-29T02:28:30.173Z,-1.8
2017-08-29T02:29:28.985Z,-1.8
2017-08-29T02:30:28.301Z,-1.8
2017-08-29T02:31:27.999Z,-1.9
2017-08-29T02:32:27.053Z,-1.9
2017-08-29T02:33:25.859Z,-1.9
2017-08-29T02:34:25.063Z,-1.9
2017-08-29T02:35:24.760Z,-1.9
2017-08-29T02:36:23.841Z,-1.8
2017-08-29T02:37:22.776Z,-1.8
2017-08-29T02:38:22.205Z,-2
2017-08-29T02:39:21.261Z,-1.7
2017-08-29T02:40:20.709Z,-1.7
2017-08-29T02:41:20.036Z,-1.6
2017-08-29T02:42:18.717Z,-1.6
2017-08-29T02:43:18.270Z,-1.6
2017-08-29T02:44:17.713Z,-1.7
2017-08-29T02:45:16.782Z,-1.7
2017-08-29T02:46:15.579Z,-1.7
2017-08-29T02:47:14.898Z,-1.8
2017-08-29T02:48:14.095Z,-1.7
2017-08-29T02:49:13.650Z,-1.7
2017-08-29T02:50:12.330Z,-1.7
2017-08-29T02:51:11.766Z,-1.7
2017-08-29T02:52:11.212Z,-1.6
2017-08-29T02:53:10.142Z,-1.6
2017-08-29T02:54:09.465Z,-1.6
2017-08-29T02:55:08.656Z,-1.5
2017-08-29T02:56:08.226Z,-1.5
2017-08-29T02:57:06.904Z,-1.5
2017-08-29T02:58:06.221Z,-1.6
2017-08-29T02:59:05.667Z,-1.5
2017-08-29T03:00:04.728Z,-1.5
2017-08-29T03:01:03.907Z,-1.5
2017-08-29T03:02:03.082Z,-1.5
2017-08-29T03:03:02.516Z,-1.4
2017-08-29T03:04:01.464Z,-1.4
2017-08-29T03:05:00.917Z,-1.4
2017-08-29T03:05:59.723Z,-1.4
2017-08-29T03:06:58.900Z,-1.4
2017-08-29T03:07:58.081Z,-1.4
2017-08-29T03:08:57.639Z,-1.4
2017-08-29T03:09:57.074Z,-1.4
2017-08-29T03:10:55.865Z,-1.5
2017-08-29T03:11:55.298Z,-1.5
2017-08-29T03:13:53.743Z,-1.5
2017-08-29T03:14:52.922Z,-1.5
2017-08-29T03:16:51.123Z,-1.5
2017-08-29T03:17:50.565Z,-1.5
2017-08-29T03:18:49.634Z,-1.5
2017-08-29T03:19:49.326Z,-1.5
2017-08-29T03:20:48.014Z,-1.6
2017-08-29T03:21:47.334Z,-1.6
2017-08-29T03:22:46.774Z,-1.6
2017-08-29T03:23:45.711Z,-1.5
2017-08-29T03:24:45.271Z,-1.5
2017-08-29T03:26:43.468Z,-1.4
2017-08-29T03:27:42.535Z,-1.4
2017-08-29T03:28:41.735Z,-1.4
2017-08-29T03:29:41.416Z,-1.4
2017-08-29T03:30:40.490Z,-1.4
2017-08-29T03:31:39.436Z,-1.4
2017-08-29T03:32:38.749Z,-1.5
2017-08-29T03:33:37.809Z,-1.6
2017-08-29T03:34:37.119Z,-1.6
2017-08-29T03:35:36.060Z,-1.6
2017-08-29T03:36:35.634Z,-1.6
2017-08-29T03:37:34.314Z,-1.6
2017-08-29T03:38:33.743Z,-1.5
2017-08-29T03:39:32.938Z,-1.5
2017-08-29T03:40:32.252Z,-1.6
2017-08-29T03:41:31.430Z,-1.6
2017-08-29T03:42:30.992Z,-1.5
2017-08-29T03:43:29.808Z,-1.4
2017-08-29T03:44:29.259Z,-1.4
2017-08-29T03:45:28.183Z,-1.4
2017-08-29T03:46:27.367Z,-1.4
2017-08-29T03:47:26.805Z,-1.4
2017-08-29T03:48:26.240Z,-1.5
2017-08-29T03:49:25.182Z,-1.4
2017-08-29T03:50:24.636Z,-1.5
2017-08-29T03:51:23.715Z,-1.4
2017-08-29T03:52:22.523Z,-1.4
2017-08-29T03:52:53.027Z,-1.4
2017-08-29T03:53:23.397Z,-1.4
2017-08-29T03:53:54.276Z,-1.4
2017-08-29T03:55:20.389Z,-1.4
2017-08-29T03:56:19.449Z,-1.4
2017-08-29T03:57:18.761Z,-1.4
2017-08-29T03:58:18.074Z,-1.4
2017-08-29T03:59:17.138Z,-1.4
2017-08-29T04:00:16.448Z,-1.4
2017-08-29T04:01:15.517Z,-1.4
2017-08-29T04:02:14.964Z,-1.4
2017-08-29T04:03:13.886Z,-1.5
2017-08-29T04:04:13.068Z,-1.5
2017-08-29T04:05:12.246Z,-1.5
2017-08-29T04:06:11.556Z,-1.5
2017-08-29T04:07:10.982Z,-1.5
2017-08-29T04:08:09.667Z,-1.5
2017-08-29T04:09:08.967Z,-1.4
2017-08-29T04:10:08.404Z,-1.4
2017-08-29T04:11:07.714Z,-1.4
2017-08-29T04:12:06.530Z,-1.4
2017-08-29T04:13:05.832Z,-1.4
2017-08-29T04:14:05.274Z,-1.3
2017-08-29T04:15:04.592Z,-1.3
2017-08-29T04:17:03.038Z,-1.4
2017-08-29T04:18:01.963Z,-1.4
2017-08-29T04:19:01.391Z,-1.4
2017-08-29T04:20:00.331Z,-1.4
2017-08-29T04:20:59.905Z,-1.4
2017-08-29T04:21:58.713Z,-1.3
2017-08-29T04:22:58.273Z,-1.3
2017-08-29T04:23:28.391Z,-1.3
2017-08-29T04:23:58.518Z,-1.3
2017-08-29T04:24:29.134Z,-1.3
2017-08-29T04:25:55.743Z,-1.4
2017-08-29T04:26:54.915Z,-1.4
2017-08-29T04:27:53.970Z,-1.5
2017-08-29T04:28:53.278Z,-1.5
2017-08-29T04:29:52.469Z,-1.5
2017-08-29T04:30:51.901Z,-1.5
2017-08-29T04:31:50.706Z,-1.4
2017-08-29T04:32:50.145Z,-1.3
2017-08-29T04:33:49.466Z,-1.4
2017-08-29T04:34:48.658Z,-1.4
2017-08-29T04:35:47.594Z,-1.4
2017-08-29T04:36:46.917Z,-1.3
2017-08-29T04:37:46.383Z,-1.3
2017-08-29T04:38:45.071Z,-1.3
2017-08-29T04:39:44.250Z,-1.3
2017-08-29T04:40:43.439Z,-1.3
2017-08-29T04:41:42.741Z,-1.2
2017-08-29T04:42:42.178Z,-1.2
2017-08-29T04:43:41.490Z,-1.2
2017-08-29T04:44:11.616Z,-1.2
2017-08-29T04:45:39.611Z,-1.3
2017-08-29T04:46:39.060Z,-1.3
2017-08-29T04:47:38.499Z,-1.3
2017-08-29T04:48:37.586Z,-1.3
2017-08-29T04:49:36.370Z,-1.4
2017-08-29T04:50:35.681Z,-1.4
2017-08-29T04:51:34.606Z,-1.4
2017-08-29T04:52:33.907Z,-1.3
2017-08-29T04:53:33.472Z,-1.4
2017-08-29T04:54:32.801Z,-1.5
2017-08-29T04:55:31.226Z,-1.6
2017-08-29T04:56:30.920Z,-1.7
2017-08-29T04:57:30.238Z,-1.7
2017-08-29T04:58:29.412Z,-1.7
2017-08-29T04:59:28.460Z,-1.7
2017-08-29T05:00:28.017Z,-1.7
2017-08-29T05:01:26.961Z,-1.7
2017-08-29T05:02:26.401Z,-1.7
2017-08-29T05:03:25.203Z,-1.7
2017-08-29T05:04:24.627Z,-1.6
2017-08-29T05:05:23.811Z,-1.6
2017-08-29T05:06:22.998Z,-1.6
2017-08-29T05:07:22.296Z,-1.6
2017-08-29T05:08:21.483Z,-1.6
2017-08-29T05:09:20.786Z,-1.6
2017-08-29T05:10:19.600Z,-1.6
2017-08-29T05:11:19.020Z,-1.6
2017-08-29T05:12:18.203Z,-1.6
2017-08-29T05:13:17.507Z,-1.6
2017-08-29T05:14:16.568Z,-1.6
2017-08-29T05:15:16.011Z,-1.7
2017-08-29T05:16:15.308Z,-1.6
2017-08-29T05:17:13.981Z,-1.6
2017-08-29T05:18:13.293Z,-1.8
2017-08-29T05:19:12.481Z,-1.8
2017-08-29T05:21:11.184Z,-1.8
2017-08-29T05:22:09.862Z,-1.8
2017-08-29T05:23:09.190Z,-1.8
2017-08-29T05:24:08.507Z,-1.8
2017-08-29T05:25:07.826Z,-1.8
2017-08-29T05:26:07.270Z,-1.8
2017-08-29T05:27:06.211Z,-1.8
2017-08-29T05:28:05.528Z,-2
2017-08-29T05:29:04.967Z,-1.9
2017-08-29T05:30:03.894Z,-2
2017-08-29T05:31:03.198Z,-2
2017-08-29T05:32:02.262Z,-2.2
2017-08-29T05:34:00.710Z,-2.4
2017-08-29T05:35:00.024Z,-2.5
2017-08-29T05:35:59.590Z,-2.7
2017-08-29T05:36:58.388Z,-2.8
2017-08-29T05:37:57.822Z,-3
2017-08-29T05:38:56.506Z,-3.3
2017-08-29T05:39:55.808Z,-3.3
2017-08-29T05:40:55.125Z,-3.3
2017-08-29T05:41:54.437Z,-3.5
2017-08-29T05:43:52.752Z,-3.8
2017-08-29T05:44:51.971Z,-3.9
2017-08-29T05:45:51.276Z,-4
2017-08-29T05:46:50.455Z,-4.2
2017-08-29T05:47:49.631Z,-4.2
2017-08-29T05:48:48.941Z,-4.4
2017-08-29T05:49:47.626Z,-4.4
2017-08-29T05:50:47.310Z,-4.5
2017-08-29T05:51:46.242Z,-4.5
2017-08-29T05:52:45.556Z,-4.6
2017-08-29T05:53:44.618Z,-4.6
2017-08-29T05:54:44.179Z,-4.7
2017-08-29T05:55:43.491Z,-4.9
2017-08-29T05:56:42.288Z,-5.1
2017-08-29T05:57:41.341Z,-5
2017-08-29T05:58:12.209Z,-5
2017-08-29T05:58:42.079Z,-5
2017-08-29T05:59:40.378Z,-5.2
2017-08-29T06:00:39.435Z,-5.3
2017-08-29T06:01:38.626Z,-5.3
2017-08-29T06:02:38.222Z,-5.4
2017-08-29T06:03:36.907Z,-5.3
2017-08-29T06:04:36.218Z,-5.5
2017-08-29T06:05:35.528Z,-5.5
2017-08-29T06:06:34.749Z,-5.5
2017-08-29T06:07:34.063Z,-5.4
2017-08-29T06:08:04.943Z,-5.4
2017-08-29T06:08:34.953Z,-5.3
2017-08-29T06:09:05.830Z,-5.3
2017-08-29T06:09:36.081Z,-5.3
2017-08-29T06:10:06.491Z,-5.3
2017-08-29T06:10:36.632Z,-5.4
2017-08-29T06:11:07.016Z,-5.4
2017-08-29T06:12:30.237Z,-5.4
2017-08-29T06:13:29.039Z,-5.3
2017-08-29T06:14:28.216Z,-5.5
2017-08-29T06:15:27.779Z,-5.5
2017-08-29T06:16:26.880Z,-5.5
2017-08-29T06:17:25.821Z,-5.8
2017-08-29T06:19:24.401Z,-5.8
2017-08-29T06:20:23.599Z,-5.8
2017-08-29T06:21:22.775Z,-5.7
2017-08-29T06:22:22.200Z,-5.6
2017-08-29T06:23:21.012Z,-5.6
2017-08-29T06:24:20.451Z,-5.7
2017-08-29T06:25:19.879Z,-5.8
2017-08-29T06:26:18.689Z,-5.7
2017-08-29T06:27:18.002Z,-5.7
2017-08-29T06:28:17.442Z,-5.6
2017-08-29T06:29:16.367Z,-5.6
2017-08-29T06:30:15.804Z,-5.7
2017-08-29T06:31:15.243Z,-5.9
2017-08-29T06:32:14.177Z,-5.8
2017-08-29T06:33:13.857Z,-5.8
2017-08-29T06:34:12.654Z,-6
2017-08-29T06:35:11.971Z,-6
2017-08-29T06:36:10.783Z,-6
2017-08-29T06:37:10.095Z,-6
2017-08-29T06:38:09.404Z,-6.1
2017-08-29T06:39:09.094Z,-6
2017-08-29T06:40:07.902Z,-6
2017-08-29T06:41:06.968Z,-6.1
2017-08-29T06:42:06.397Z,-6.1
2017-08-29T06:43:05.849Z,-6.1
2017-08-29T06:44:04.652Z,-5.9
2017-08-29T06:45:03.967Z,-5.9
2017-08-29T06:46:03.530Z,-5.9
2017-08-29T06:47:03.090Z,-6.1
2017-08-29T06:48:01.904Z,-6.2
2017-08-29T06:49:00.857Z,-6.2
2017-08-29T06:49:31.118Z,-6.2
2017-08-29T06:50:01.366Z,-6.2
2017-08-29T06:50:59.297Z,-6.2
2017-08-29T06:51:58.605Z,-6.3
2017-08-29T06:52:57.920Z,-6.2
2017-08-29T06:53:57.351Z,-6
2017-08-29T06:54:56.155Z,-5.9
2017-08-29T06:55:55.625Z,-5.9
2017-08-29T06:56:55.308Z,-5.9
2017-08-29T06:57:53.980Z,-5.9
2017-08-29T06:58:53.545Z,-5.8
2017-08-29T06:59:52.595Z,-5.8
2017-08-29T07:00:22.835Z,-5.8
2017-08-29T07:00:52.836Z,-5.8
2017-08-29T07:01:23.463Z,-5.8
2017-08-29T07:02:50.573Z,-5.9
2017-08-29T07:03:49.511Z,-5.8
2017-08-29T07:04:48.939Z,-5.7
2017-08-29T07:06:47.262Z,-5.8
2017-08-29T07:07:46.829Z,-5.5
2017-08-29T07:08:45.887Z,-5.6
2017-08-29T07:09:44.946Z,-5.6
2017-08-29T07:10:44.383Z,-5.7
2017-08-29T07:11:43.573Z,-5.7
2017-08-29T07:12:42.894Z,-5.6
2017-08-29T07:13:41.571Z,-5.4
2017-08-29T07:14:41.021Z,-5.4
2017-08-29T07:15:40.212Z,-5.6
2017-08-29T07:16:39.404Z,-5.6
2017-08-29T07:17:38.846Z,-5.6
2017-08-29T07:18:37.909Z,-5.5
2017-08-29T07:19:37.462Z,-5.4
2017-08-29T07:20:37.033Z,-5.7
2017-08-29T07:21:36.105Z,-5.6
2017-08-29T07:22:35.183Z,-5.6
2017-08-29T07:23:34.630Z,-5.4
2017-08-29T07:24:33.189Z,-5.6
2017-08-29T07:25:33.009Z,-5.5
2017-08-29T07:26:32.194Z,-5.5
2017-08-29T07:27:31.647Z,-5.4
2017-08-29T07:28:30.464Z,-5.2
2017-08-29T07:29:29.924Z,-5.2
2017-08-29T07:30:29.245Z,-5.4
2017-08-29T07:31:28.804Z,-5.5
2017-08-29T07:32:27.656Z,-5.6
2017-08-29T07:33:27.345Z,-5.7
2017-08-29T07:34:26.272Z,-5.9
2017-08-29T07:35:25.703Z,-5.9
2017-08-29T07:36:24.497Z,-5.9
2017-08-29T07:37:23.803Z,-5.8
2017-08-29T07:38:23.368Z,-5.6
2017-08-29T07:40:21.432Z,-5.7
2017-08-29T07:42:20.303Z,-5.7
2017-08-29T07:43:19.625Z,-5.5
2017-08-29T07:44:18.954Z,-5.7
2017-08-29T07:45:18.029Z,-5.6
2017-08-29T07:46:17.601Z,-5.4
2017-08-29T07:47:16.400Z,-5.3
2017-08-29T07:48:15.829Z,-5.1
2017-08-29T07:49:14.760Z,-4.9
2017-08-29T07:50:14.708Z,-4.9
2017-08-29T07:51:13.518Z,-4.9
2017-08-29T07:52:12.964Z,-5
2017-08-29T07:53:12.166Z,-5
2017-08-29T07:54:11.362Z,-5
2017-08-29T07:55:10.678Z,-5
2017-08-29T07:57:09.518Z,-5
2017-08-29T07:58:08.952Z,-4.9
2017-08-29T07:59:07.884Z,-5
2017-08-29T08:00:07.076Z,-5
2017-08-29T08:01:06.253Z,-5
2017-08-29T08:02:05.554Z,-4.8
2017-08-29T08:03:04.743Z,-4.9
2017-08-29T08:04:04.067Z,-4.9
2017-08-29T08:05:03.510Z,-4.8
2017-08-29T08:06:03.213Z,-4.8
2017-08-29T08:07:02.045Z,-4.4
2017-08-29T08:08:01.190Z,-4.4
2017-08-29T08:09:00.506Z,-4.5
2017-08-29T08:10:00.069Z,-4.7
2017-08-29T08:10:59.630Z,-4.8
2017-08-29T08:11:58.566Z,-4.6
2017-08-29T08:12:57.888Z,-4.7
2017-08-29T08:13:57.196Z,-4.7
2017-08-29T08:14:56.777Z,-4.7
2017-08-29T08:15:55.839Z,-4.8
2017-08-29T08:16:55.151Z,-4.8
2017-08-29T08:17:54.205Z,-4.8
2017-08-29T08:18:53.515Z,-4.7
2017-08-29T08:19:53.066Z,-4.6
2017-08-29T08:20:51.880Z,-4.6
2017-08-29T08:24:49.358Z,-4.6
2017-08-29T08:25:48.934Z,-4.5
2017-08-29T08:26:19.050Z,-4.5
2017-08-29T08:26:49.800Z,-4.4
2017-08-29T08:27:20.045Z,-4.4
2017-08-29T08:27:50.432Z,-4.6
2017-08-29T08:28:20.550Z,-4.6
2017-08-29T08:30:45.160Z,-4.5
2017-08-29T08:31:44.220Z,-4.2
2017-08-29T08:32:43.405Z,-4.2
2017-08-29T08:33:42.835Z,-4.1
2017-08-29T08:34:42.008Z,-4.3
2017-08-29T08:35:41.190Z,-4.3
2017-08-29T08:36:40.503Z,-4.4
2017-08-29T08:37:39.936Z,-4.5
2017-08-29T08:38:38.991Z,-4.7
2017-08-29T08:39:09.876Z,-4.7
2017-08-29T08:39:39.998Z,-4.7
2017-08-29T08:40:10.618Z,-4.7
2017-08-29T08:41:37.104Z,-4.6
2017-08-29T08:42:36.794Z,-4.6
2017-08-29T08:43:35.724Z,-4.6
2017-08-29T08:44:34.656Z,-4.5
2017-08-29T08:45:34.866Z,-4.4
2017-08-29T08:46:33.939Z,-4.4
2017-08-29T08:47:33.254Z,-4.3
2017-08-29T08:48:32.569Z,-4.3
2017-08-29T08:49:31.999Z,-4.2
2017-08-29T08:50:30.811Z,-4
2017-08-29T08:51:30.249Z,-3.9
2017-08-29T08:52:29.683Z,-3.7
2017-08-29T08:53:28.741Z,-3.6
2017-08-29T08:54:27.922Z,-3.6
2017-08-29T08:55:27.484Z,-3.6
2017-08-29T08:56:26.807Z,-3.7
2017-08-29T08:57:26.256Z,-3.9
2017-08-29T08:58:25.312Z,-4
2017-08-29T08:59:24.992Z,-4.1
2017-08-29T09:00:24.330Z,-4
2017-08-29T09:01:23.643Z,-3.6
2017-08-29T09:02:22.958Z,-3.6
2017-08-29T09:03:22.528Z,-3.7
2017-08-29T09:04:21.577Z,-3.6
2017-08-29T09:05:21.007Z,-3.5
2017-08-29T09:06:20.197Z,-3.5
2017-08-29T09:07:19.633Z,-3.5
2017-08-29T09:08:18.947Z,-3.6
2017-08-29T09:09:17.884Z,-3.6
2017-08-29T09:11:16.835Z,-3.7
2017-08-29T09:12:16.153Z,-3.5
2017-08-29T09:13:15.706Z,-3.5
2017-08-29T09:16:13.722Z,-3.5
2017-08-29T09:18:12.166Z,-3.5
2017-08-29T09:19:11.610Z,-3.4
2017-08-29T09:20:10.786Z,-3.5
2017-08-29T09:20:41.030Z,-3.5
2017-08-29T09:21:11.275Z,-3.5
2017-08-29T09:22:09.207Z,-3.5
2017-08-29T09:23:08.517Z,-3.4
2017-08-29T09:24:07.831Z,-3.2
2017-08-29T09:25:07.646Z,-3.1
2017-08-29T09:26:06.704Z,-3.1
2017-08-29T09:27:06.260Z,-3.2
2017-08-29T09:28:05.342Z,-3.3
2017-08-29T09:29:05.022Z,-3.2
2017-08-29T09:30:03.975Z,-3
2017-08-29T09:31:03.412Z,-2.9
2017-08-29T09:32:02.611Z,-2.7
2017-08-29T09:33:02.058Z,-2.6
2017-08-29T09:34:01.620Z,-2.5
2017-08-29T09:35:00.796Z,-2.5
2017-08-29T09:36:00.228Z,-2.5
2017-08-29T09:36:59.664Z,-2.6
2017-08-29T09:37:58.218Z,-2.5
2017-08-29T09:38:58.035Z,-2.6
2017-08-29T09:39:57.607Z,-2.5
2017-08-29T09:40:56.927Z,-2.5
2017-08-29T09:41:56.475Z,-2.4
2017-08-29T09:42:55.532Z,-2.3
2017-08-29T09:43:54.724Z,-2.2
2017-08-29T09:44:53.780Z,-2.2
2017-08-29T09:45:53.724Z,-2.2
2017-08-29T09:46:52.779Z,-2.3
2017-08-29T09:47:52.214Z,-2.4
2017-08-29T09:48:51.637Z,-2.4
2017-08-29T09:49:51.068Z,-2.2
2017-08-29T09:50:50.381Z,-2.3
2017-08-29T09:51:49.819Z,-2.3
2017-08-29T09:52:49.136Z,-2.1
2017-08-29T09:53:48.582Z,-1.9
2017-08-29T09:54:47.512Z,-1.9
2017-08-29T09:55:47.327Z,-2
2017-08-29T09:56:46.264Z,-1.9
2017-08-29T09:57:45.560Z,-1.8
2017-08-29T09:58:45.378Z,-1.7
2017-08-29T09:59:44.302Z,-1.6
2017-08-29T10:00:44.254Z,-1.6
2017-08-29T10:01:43.058Z,-1.7
2017-08-29T10:02:42.372Z,-1.7
2017-08-29T10:03:41.933Z,-1.8
2017-08-29T10:04:41.493Z,-1.8
2017-08-29T10:05:40.816Z,-1.9
2017-08-29T10:06:40.009Z,-2
2017-08-29T10:07:39.457Z,-1.9
2017-08-29T10:08:38.772Z,-2
2017-08-29T10:09:37.941Z,-1.8
2017-08-29T10:10:37.892Z,-1.8
2017-08-29T10:11:36.823Z,-1.7
2017-08-29T10:12:36.132Z,-1.7
2017-08-29T10:13:35.566Z,-1.7
2017-08-29T10:14:34.843Z,-1.7
2017-08-29T10:15:34.150Z,-1.5
2017-08-29T10:16:33.710Z,-1.5
2017-08-29T10:18:32.666Z,-1.4
2017-08-29T10:19:32.227Z,-1.3
2017-08-29T10:20:31.034Z,-1.3
2017-08-29T10:21:30.849Z,-1.2
2017-08-29T10:23:29.292Z,-1
2017-08-29T10:24:28.846Z,-1.1
2017-08-29T10:26:27.799Z,-1.1
2017-08-29T10:27:26.985Z,-0.9
2017-08-29T10:29:25.674Z,-0.8
2017-08-29T10:30:24.986Z,-0.8
2017-08-29T10:31:24.296Z,-0.8
2017-08-29T10:32:23.357Z,-0.8
2017-08-29T10:33:23.209Z,-0.8
2017-08-29T10:34:22.641Z,-0.6
2017-08-29T10:35:21.702Z,-0.7
2017-08-29T10:36:21.262Z,-0.6
2017-08-29T10:37:20.690Z,-0.6
2017-08-29T10:38:20.132Z,-0.6
2017-08-29T10:39:19.564Z,-0.7
2017-08-29T10:40:18.998Z,-0.7
2017-08-29T10:41:18.553Z,-0.7
2017-08-29T10:42:17.630Z,-0.7
2017-08-29T10:43:16.950Z,-0.8
2017-08-29T10:44:16.509Z,-0.8
2017-08-29T10:45:15.838Z,-0.8
2017-08-29T10:47:14.799Z,-0.4
2017-08-29T10:48:13.994Z,-0.5
2017-08-29T10:49:13.558Z,-0.5
2017-08-29T10:50:13.106Z,-0.5
2017-08-29T10:51:12.414Z,-0.4
2017-08-29T10:52:11.726Z,-0.4
2017-08-29T10:53:11.042Z,-0.3
2017-08-29T10:54:10.476Z,-0.3
2017-08-29T10:55:09.912Z,-0.4
2017-08-29T10:56:09.608Z,-0.4
2017-08-29T10:57:08.928Z,-0.4
2017-08-29T10:58:07.878Z,-0.4
2017-08-29T10:58:37.873Z,-0.4
2017-08-29T11:00:07.009Z,-0.5
2017-08-29T11:01:06.325Z,-0.6
2017-08-29T11:02:05.633Z,-0.7
2017-08-29T11:03:05.316Z,-0.6
2017-08-29T11:06:03.412Z,-0.7
2017-08-29T11:07:02.850Z,-0.7
2017-08-29T11:08:02.034Z,-0.6
2017-08-29T11:09:01.347Z,-0.6
2017-08-29T11:10:01.033Z,-0.6
2017-08-29T11:11:00.474Z,-0.5
2017-08-29T11:11:59.792Z,-0.5
2017-08-29T11:12:59.099Z,-0.4
2017-08-29T11:13:58.289Z,-0.2
2017-08-29T11:14:58.355Z,-0.3
2017-08-29T11:15:57.541Z,-0.3
2017-08-29T11:16:56.726Z,-0.3
2017-08-29T11:17:56.674Z,-0.3
2017-08-29T11:18:56.115Z,-0.3
2017-08-29T11:19:55.172Z,-0.2
2017-08-29T11:20:54.486Z,-0.1
2017-08-29T11:21:54.432Z,-0.1
2017-08-29T11:22:53.756Z,-0.1
2017-08-29T11:23:53.323Z,0
2017-08-29T11:24:52.251Z,-0.1
2017-08-29T11:25:51.820Z,-0.1
2017-08-29T11:26:51.000Z,0.1
2017-08-29T11:27:50.309Z,0
2017-08-29T11:28:50.005Z,0.1
2017-08-29T11:29:49.443Z,0.1
2017-08-29T11:30:48.763Z,0
2017-08-29T11:31:48.326Z,0.1
2017-08-29T11:32:47.895Z,0.1
2017-08-29T11:33:47.339Z,0
2017-08-29T11:34:46.646Z,0.1
2017-08-29T11:35:46.206Z,0
2017-08-29T11:36:45.663Z,0
2017-08-29T11:37:44.980Z,-0.1
2017-08-29T11:38:44.414Z,0
2017-08-29T11:39:43.720Z,0.1
2017-08-29T11:40:42.784Z,0.1
2017-08-29T11:41:42.728Z,0.2
2017-08-29T11:42:42.155Z,0.3
2017-08-29T11:43:41.341Z,0.3
2017-08-29T11:44:41.289Z,0.3
2017-08-29T11:45:40.590Z,0.4
2017-08-29T11:46:40.367Z,0.6
2017-08-29T11:47:39.690Z,0.8
2017-08-29T11:48:38.995Z,0.8
2017-08-29T11:49:38.437Z,0.9
2017-08-29T11:50:38.119Z,0.8
2017-08-29T11:52:36.939Z,0.9
2017-08-29T11:53:36.374Z,0.9
2017-08-29T11:54:35.573Z,1
2017-08-29T11:55:34.897Z,1
2017-08-29T11:56:34.726Z,1.1
2017-08-29T11:57:34.306Z,1
2017-08-29T11:58:04.680Z,1
2017-08-29T11:58:34.670Z,1
2017-08-29T11:59:32.975Z,0.9
2017-08-29T12:00:32.154Z,1
2017-08-29T12:01:31.588Z,1.1
2017-08-29T12:02:31.287Z,1.3
2017-08-29T12:03:30.352Z,1.2
2017-08-29T12:04:30.295Z,1.3
2017-08-29T12:05:29.729Z,1.3
2017-08-29T12:06:29.284Z,1.2
2017-08-29T12:07:28.728Z,1.3
2017-08-29T12:08:28.036Z,1.4
2017-08-29T12:08:58.146Z,1.4
2017-08-29T12:09:28.775Z,1.4
2017-08-29T12:09:59.274Z,1.4
2017-08-29T12:12:25.910Z,1.7
2017-08-29T12:13:25.472Z,1.7
2017-08-29T12:14:24.920Z,1.8
2017-08-29T12:15:24.238Z,1.9
2017-08-29T12:17:23.568Z,1.9
2017-08-29T12:18:23.011Z,1.8
2017-08-29T12:19:22.323Z,1.9
2017-08-29T12:20:21.772Z,1.9
2017-08-29T12:22:20.975Z,2
2017-08-29T12:23:20.404Z,1.9
2017-08-29T12:25:19.222Z,2
2017-08-29T12:26:18.303Z,2.1
2017-08-29T12:27:17.996Z,2.2
2017-08-29T12:28:17.943Z,2.2
2017-08-29T12:30:16.910Z,2.3
2017-08-29T12:31:16.475Z,2.2
2017-08-29T12:32:15.916Z,2.3
2017-08-29T12:33:15.504Z,2.2
2017-08-29T12:34:14.688Z,2.2
2017-08-29T12:35:14.123Z,2.2
2017-08-29T12:36:13.806Z,2.2
2017-08-29T12:37:13.115Z,2.2
2017-08-29T12:40:11.833Z,2.5
2017-08-29T12:41:11.142Z,2.5
2017-08-29T12:42:10.704Z,2.4
2017-08-29T12:43:10.103Z,2.5
2017-08-29T12:44:09.926Z,2.5
2017-08-29T12:45:09.365Z,2.5
2017-08-29T12:46:08.676Z,2.3
2017-08-29T12:47:08.130Z,2.3
2017-08-29T12:48:07.566Z,2.4
2017-08-29T12:49:07.386Z,2.3
2017-08-29T12:50:06.582Z,2.4
2017-08-29T12:52:05.925Z,2.4
2017-08-29T12:53:05.608Z,2.5
2017-08-29T12:54:04.906Z,2.6
2017-08-29T12:55:04.347Z,2.6
2017-08-29T12:56:04.153Z,2.6
2017-08-29T12:57:03.459Z,2.7
2017-08-29T13:00:02.314Z,2.7
2017-08-29T13:02:01.149Z,2.7
2017-08-29T13:03:00.591Z,2.8
2017-08-29T13:04:00.154Z,3
2017-08-29T13:04:59.725Z,3
2017-08-29T13:05:59.174Z,2.9
2017-08-29T13:06:58.614Z,3
2017-08-29T13:08:57.857Z,3
2017-08-29T13:09:57.043Z,3.1
2017-08-29T13:10:57.097Z,3.1
2017-08-29T13:11:56.425Z,3.1
2017-08-29T13:12:56.003Z,3.1
2017-08-29T13:13:55.306Z,3.1
2017-08-29T13:14:55.356Z,3.3
2017-08-29T13:15:54.558Z,3.3
2017-08-29T13:16:53.862Z,3.1
2017-08-29T13:17:53.915Z,3.1
2017-08-29T13:18:53.224Z,3.3
2017-08-29T13:19:52.658Z,3.3
2017-08-29T13:20:52.357Z,3.2
2017-08-29T13:21:51.801Z,3.3
2017-08-29T13:22:51.110Z,3.4
2017-08-29T13:25:50.095Z,3.4
2017-08-29T13:26:49.795Z,3.5
2017-08-29T13:27:48.993Z,3.7
2017-08-29T13:28:48.433Z,3.7
2017-08-29T13:29:48.119Z,3.6
2017-08-29T13:31:47.329Z,3.5
2017-08-29T13:32:46.772Z,3.3
2017-08-29T13:33:46.079Z,3
2017-08-29T13:34:46.025Z,3.1
2017-08-29T13:36:44.729Z,3.3
2017-08-29T13:37:44.549Z,3.4
2017-08-29T13:38:44.371Z,3.4
2017-08-29T13:39:43.682Z,3.4
2017-08-29T13:40:42.881Z,3.3
2017-08-29T13:41:42.819Z,3.3
2017-08-29T13:42:41.995Z,3.3
2017-08-29T13:43:41.808Z,3.6
2017-08-29T13:45:41.272Z,3.7
2017-08-29T13:46:40.835Z,3.7
2017-08-29T13:47:40.147Z,3.8
2017-08-29T13:48:39.711Z,3.7
2017-08-29T13:51:38.308Z,3.9
2017-08-29T13:52:37.995Z,4
2017-08-29T13:53:37.179Z,3.8
2017-08-29T13:54:37.000Z,4
2017-08-29T13:59:35.007Z,4.1
2017-08-29T14:00:34.438Z,4.2
2017-08-29T14:01:34.004Z,4.3
2017-08-29T14:02:04.619Z,4.3
2017-08-29T14:02:35.239Z,4.3
2017-08-29T14:03:06.112Z,4.3